sensor_id;sensor_type;location;lat;lon;timestamp;P1;durP1;ratioP1;P2;durP2;ratioP2
27642;SDS011;15053;48.618;10.024;2022-10-31T00:04:03;16.30;;;7.10;;
27642;SDS011;15053;48.618;10.024;2022-10-31T00:06:30;14.10;;;7.00;;
27642;SDS011;15053;48.618;10.024;2022-10-31T00:08:58;14.27;;;6.07;;
27642;SDS011;15053;48.618;10.024;2022-10-31T00:11:26;12.02;;;6.57;;
27642;SDS011;15053;48.618;10.024;2022-10-31T00:13:53;9.05;;;6.38;;
27642;SDS011;15053;48.618;10.024;2022-10-31T00:16:20;12.45;;;6.30;;
27642;SDS011;15053;48.618;10.024;2022-10-31T00:18:49;15.07;;;6.07;;
27642;SDS011;15053;48.618;10.024;2022-10-31T00:21:16;9.30;;;5.85;;
27642;SDS011;15053;48.618;10.024;2022-10-31T00:23:43;11.80;;;6.25;;
27642;SDS011;15053;48.618;10.024;2022-10-31T00:26:10;16.73;;;6.53;;
27642;SDS011;15053;48.618;10.024;2022-10-31T00:28:36;13.57;;;6.47;;
27642;SDS011;15053;48.618;10.024;2022-10-31T00:31:03;12.70;;;7.15;;
27642;SDS011;15053;48.618;10.024;2022-10-31T00:33:32;14.02;;;6.13;;
27642;SDS011;15053;48.618;10.024;2022-10-31T00:36:00;16.85;;;6.00;;
27642;SDS011;15053;48.618;10.024;2022-10-31T00:38:26;12.77;;;6.00;;
27642;SDS011;15053;48.618;10.024;2022-10-31T00:40:53;12.43;;;6.05;;
27642;SDS011;15053;48.618;10.024;2022-10-31T00:43:19;17.63;;;6.55;;
27642;SDS011;15053;48.618;10.024;2022-10-31T00:45:45;14.27;;;5.85;;
27642;SDS011;15053;48.618;10.024;2022-10-31T00:48:12;17.02;;;5.85;;
27642;SDS011;15053;48.618;10.024;2022-10-31T00:50:39;13.60;;;6.70;;
27642;SDS011;15053;48.618;10.024;2022-10-31T00:53:06;16.77;;;6.00;;
27642;SDS011;15053;48.618;10.024;2022-10-31T00:55:32;15.60;;;6.78;;
27642;SDS011;15053;48.618;10.024;2022-10-31T00:57:59;11.02;;;5.25;;
27642;SDS011;15053;48.618;10.024;2022-10-31T01:00:26;10.13;;;5.97;;
27642;SDS011;15053;48.618;10.024;2022-10-31T01:02:52;12.50;;;6.25;;
27642;SDS011;15053;48.618;10.024;2022-10-31T01:05:19;10.18;;;5.82;;
27642;SDS011;15053;48.618;10.024;2022-10-31T01:07:46;11.15;;;5.38;;
27642;SDS011;15053;48.618;10.024;2022-10-31T01:10:12;8.93;;;5.60;;
27642;SDS011;15053;48.618;10.024;2022-10-31T01:12:39;15.57;;;5.68;;
27642;SDS011;15053;48.618;10.024;2022-10-31T01:15:07;14.02;;;5.63;;
27642;SDS011;15053;48.618;10.024;2022-10-31T01:17:34;11.82;;;5.30;;
27642;SDS011;15053;48.618;10.024;2022-10-31T01:20:01;10.95;;;5.10;;
27642;SDS011;15053;48.618;10.024;2022-10-31T01:22:30;10.65;;;4.50;;
27642;SDS011;15053;48.618;10.024;2022-10-31T01:24:59;11.43;;;4.88;;
27642;SDS011;15053;48.618;10.024;2022-10-31T01:27:25;12.65;;;5.93;;
27642;SDS011;15053;48.618;10.024;2022-10-31T01:29:52;9.57;;;5.20;;
27642;SDS011;15053;48.618;10.024;2022-10-31T01:32:19;7.93;;;4.97;;
27642;SDS011;15053;48.618;10.024;2022-10-31T01:34:45;8.23;;;4.60;;
27642;SDS011;15053;48.618;10.024;2022-10-31T01:37:12;8.27;;;4.63;;
27642;SDS011;15053;48.618;10.024;2022-10-31T01:39:38;13.05;;;5.38;;
27642;SDS011;15053;48.618;10.024;2022-10-31T01:42:05;8.90;;;4.68;;
27642;SDS011;15053;48.618;10.024;2022-10-31T01:47:05;13.82;;;5.28;;
27642;SDS011;15053;48.618;10.024;2022-10-31T01:49:37;12.23;;;5.32;;
27642;SDS011;15053;48.618;10.024;2022-10-31T01:52:28;11.75;;;5.07;;
27642;SDS011;15053;48.618;10.024;2022-10-31T01:57:33;8.63;;;4.72;;
27642;SDS011;15053;48.618;10.024;2022-10-31T02:00:04;14.15;;;6.60;;
27642;SDS011;15053;48.618;10.024;2022-10-31T02:02:40;10.88;;;5.05;;
27642;SDS011;15053;48.618;10.024;2022-10-31T02:05:09;12.07;;;5.45;;
27642;SDS011;15053;48.618;10.024;2022-10-31T02:07:49;8.20;;;4.63;;
27642;SDS011;15053;48.618;10.024;2022-10-31T02:10:26;14.13;;;5.70;;
27642;SDS011;15053;48.618;10.024;2022-10-31T02:12:53;19.67;;;7.20;;
27642;SDS011;15053;48.618;10.024;2022-10-31T02:15:23;13.48;;;5.50;;
27642;SDS011;15053;48.618;10.024;2022-10-31T02:17:51;9.05;;;4.78;;
27642;SDS011;15053;48.618;10.024;2022-10-31T02:20:19;10.55;;;4.90;;
27642;SDS011;15053;48.618;10.024;2022-10-31T02:25:22;14.10;;;5.50;;
27642;SDS011;15053;48.618;10.024;2022-10-31T02:28:29;14.05;;;5.90;;
27642;SDS011;15053;48.618;10.024;2022-10-31T02:31:35;10.77;;;4.88;;
27642;SDS011;15053;48.618;10.024;2022-10-31T02:34:17;10.43;;;5.15;;
27642;SDS011;15053;48.618;10.024;2022-10-31T02:42:09;19.63;;;5.55;;
27642;SDS011;15053;48.618;10.024;2022-10-31T02:47:27;10.73;;;5.57;;
27642;SDS011;15053;48.618;10.024;2022-10-31T02:50:00;8.32;;;4.30;;
27642;SDS011;15053;48.618;10.024;2022-10-31T02:52:33;13.05;;;5.13;;
27642;SDS011;15053;48.618;10.024;2022-10-31T02:56:05;10.15;;;4.55;;
27642;SDS011;15053;48.618;10.024;2022-10-31T02:58:05;9.30;;;4.55;;
27642;SDS011;15053;48.618;10.024;2022-10-31T03:00:40;12.60;;;4.50;;
27642;SDS011;15053;48.618;10.024;2022-10-31T03:12:14;10.20;;;5.20;;
27642;SDS011;15053;48.618;10.024;2022-10-31T03:17:33;8.83;;;5.13;;
27642;SDS011;15053;48.618;10.024;2022-10-31T03:20:03;19.48;;;5.55;;
27642;SDS011;15053;48.618;10.024;2022-10-31T03:22:34;12.90;;;5.20;;
27642;SDS011;15053;48.618;10.024;2022-10-31T03:25:04;12.73;;;5.22;;
27642;SDS011;15053;48.618;10.024;2022-10-31T03:27:32;17.30;;;7.15;;
27642;SDS011;15053;48.618;10.024;2022-10-31T03:30:02;16.85;;;7.65;;
27642;SDS011;15053;48.618;10.024;2022-10-31T03:32:43;11.45;;;5.13;;
27642;SDS011;15053;48.618;10.024;2022-10-31T03:35:13;14.73;;;5.95;;
27642;SDS011;15053;48.618;10.024;2022-10-31T03:37:43;7.85;;;5.32;;
27642;SDS011;15053;48.618;10.024;2022-10-31T03:40:13;16.98;;;6.22;;
27642;SDS011;15053;48.618;10.024;2022-10-31T03:42:43;29.35;;;13.75;;
27642;SDS011;15053;48.618;10.024;2022-10-31T03:45:24;10.93;;;6.32;;
27642;SDS011;15053;48.618;10.024;2022-10-31T03:47:53;18.63;;;7.40;;
27642;SDS011;15053;48.618;10.024;2022-10-31T03:50:21;11.23;;;6.10;;
27642;SDS011;15053;48.618;10.024;2022-10-31T03:52:53;18.17;;;6.18;;
27642;SDS011;15053;48.618;10.024;2022-10-31T03:55:29;11.68;;;5.53;;
27642;SDS011;15053;48.618;10.024;2022-10-31T03:58:00;13.75;;;5.80;;
27642;SDS011;15053;48.618;10.024;2022-10-31T04:00:34;14.98;;;5.13;;
27642;SDS011;15053;48.618;10.024;2022-10-31T04:03:11;8.15;;;4.50;;
27642;SDS011;15053;48.618;10.024;2022-10-31T04:05:43;9.32;;;5.13;;
27642;SDS011;15053;48.618;10.024;2022-10-31T04:08:14;13.35;;;4.70;;
27642;SDS011;15053;48.618;10.024;2022-10-31T04:10:45;10.30;;;4.72;;
27642;SDS011;15053;48.618;10.024;2022-10-31T04:13:20;12.30;;;4.90;;
27642;SDS011;15053;48.618;10.024;2022-10-31T04:16:01;11.55;;;5.15;;
27642;SDS011;15053;48.618;10.024;2022-10-31T04:18:27;13.15;;;5.28;;
27642;SDS011;15053;48.618;10.024;2022-10-31T04:21:01;12.65;;;4.78;;
27642;SDS011;15053;48.618;10.024;2022-10-31T04:23:29;11.10;;;4.85;;
27642;SDS011;15053;48.618;10.024;2022-10-31T04:25:58;12.93;;;4.72;;
27642;SDS011;15053;48.618;10.024;2022-10-31T04:28:24;9.57;;;4.63;;
27642;SDS011;15053;48.618;10.024;2022-10-31T04:30:51;10.75;;;4.85;;
27642;SDS011;15053;48.618;10.024;2022-10-31T04:33:18;11.15;;;4.38;;
27642;SDS011;15053;48.618;10.024;2022-10-31T04:35:46;10.15;;;4.93;;
27642;SDS011;15053;48.618;10.024;2022-10-31T04:38:12;10.75;;;4.65;;
27642;SDS011;15053;48.618;10.024;2022-10-31T04:40:39;18.67;;;6.53;;
27642;SDS011;15053;48.618;10.024;2022-10-31T04:43:24;13.38;;;4.90;;
27642;SDS011;15053;48.618;10.024;2022-10-31T04:45:51;13.00;;;5.88;;
27642;SDS011;15053;48.618;10.024;2022-10-31T04:48:19;13.80;;;7.57;;
27642;SDS011;15053;48.618;10.024;2022-10-31T04:50:45;15.10;;;6.45;;
27642;SDS011;15053;48.618;10.024;2022-10-31T04:53:13;9.32;;;6.15;;
27642;SDS011;15053;48.618;10.024;2022-10-31T04:56:02;17.80;;;6.28;;
27642;SDS011;15053;48.618;10.024;2022-10-31T04:58:38;13.80;;;6.50;;
27642;SDS011;15053;48.618;10.024;2022-10-31T05:01:07;15.52;;;6.22;;
27642;SDS011;15053;48.618;10.024;2022-10-31T05:03:33;13.23;;;5.55;;
27642;SDS011;15053;48.618;10.024;2022-10-31T05:06:00;10.43;;;5.50;;
27642;SDS011;15053;48.618;10.024;2022-10-31T05:08:27;17.02;;;6.30;;
27642;SDS011;15053;48.618;10.024;2022-10-31T05:10:54;14.00;;;5.82;;
27642;SDS011;15053;48.618;10.024;2022-10-31T05:13:25;11.80;;;6.30;;
27642;SDS011;15053;48.618;10.024;2022-10-31T05:16:15;14.60;;;6.40;;
27642;SDS011;15053;48.618;10.024;2022-10-31T05:21:41;10.68;;;5.28;;
27642;SDS011;15053;48.618;10.024;2022-10-31T05:24:09;8.98;;;5.60;;
27642;SDS011;15053;48.618;10.024;2022-10-31T05:26:38;10.80;;;5.13;;
27642;SDS011;15053;48.618;10.024;2022-10-31T05:29:04;12.98;;;6.00;;
27642;SDS011;15053;48.618;10.024;2022-10-31T05:31:31;12.75;;;5.18;;
27642;SDS011;15053;48.618;10.024;2022-10-31T05:33:57;13.95;;;5.25;;
27642;SDS011;15053;48.618;10.024;2022-10-31T05:36:42;10.55;;;5.00;;
27642;SDS011;15053;48.618;10.024;2022-10-31T05:39:13;10.53;;;5.13;;
27642;SDS011;15053;48.618;10.024;2022-10-31T05:41:41;10.32;;;5.15;;
27642;SDS011;15053;48.618;10.024;2022-10-31T05:44:14;17.85;;;6.03;;
27642;SDS011;15053;48.618;10.024;2022-10-31T05:46:53;11.82;;;5.45;;
27642;SDS011;15053;48.618;10.024;2022-10-31T05:49:39;10.27;;;5.43;;
27642;SDS011;15053;48.618;10.024;2022-10-31T05:52:23;15.60;;;5.90;;
27642;SDS011;15053;48.618;10.024;2022-10-31T05:54:57;12.00;;;5.97;;
27642;SDS011;15053;48.618;10.024;2022-10-31T05:57:24;11.10;;;5.32;;
27642;SDS011;15053;48.618;10.024;2022-10-31T05:59:51;9.80;;;6.00;;
27642;SDS011;15053;48.618;10.024;2022-10-31T06:02:21;11.95;;;6.30;;
27642;SDS011;15053;48.618;10.024;2022-10-31T06:05:06;12.73;;;6.63;;
27642;SDS011;15053;48.618;10.024;2022-10-31T06:07:33;15.98;;;6.00;;
27642;SDS011;15053;48.618;10.024;2022-10-31T06:10:03;17.38;;;7.10;;
27642;SDS011;15053;48.618;10.024;2022-10-31T06:12:32;12.75;;;6.68;;
27642;SDS011;15053;48.618;10.024;2022-10-31T06:15:15;16.95;;;6.93;;
27642;SDS011;15053;48.618;10.024;2022-10-31T06:17:56;12.63;;;6.75;;
27642;SDS011;15053;48.618;10.024;2022-10-31T06:20:32;11.93;;;7.10;;
27642;SDS011;15053;48.618;10.024;2022-10-31T06:23:03;15.88;;;6.78;;
27642;SDS011;15053;48.618;10.024;2022-10-31T06:25:31;11.50;;;6.63;;
27642;SDS011;15053;48.618;10.024;2022-10-31T06:27:59;13.30;;;6.47;;
27642;SDS011;15053;48.618;10.024;2022-10-31T06:30:35;13.70;;;6.20;;
27642;SDS011;15053;48.618;10.024;2022-10-31T06:33:03;9.30;;;6.07;;
27642;SDS011;15053;48.618;10.024;2022-10-31T06:35:32;15.75;;;7.15;;
27642;SDS011;15053;48.618;10.024;2022-10-31T06:37:58;18.98;;;6.82;;
27642;SDS011;15053;48.618;10.024;2022-10-31T06:40:32;12.05;;;7.15;;
27642;SDS011;15053;48.618;10.024;2022-10-31T06:43:16;15.02;;;7.28;;
27642;SDS011;15053;48.618;10.024;2022-10-31T06:45:43;9.80;;;6.50;;
27642;SDS011;15053;48.618;10.024;2022-10-31T06:48:22;13.68;;;6.60;;
27642;SDS011;15053;48.618;10.024;2022-10-31T06:51:09;12.38;;;7.85;;
27642;SDS011;15053;48.618;10.024;2022-10-31T06:53:36;16.23;;;7.75;;
27642;SDS011;15053;48.618;10.024;2022-10-31T06:56:04;14.05;;;6.20;;
27642;SDS011;15053;48.618;10.024;2022-10-31T06:58:36;11.00;;;6.82;;
27642;SDS011;15053;48.618;10.024;2022-10-31T07:01:05;11.13;;;6.18;;
27642;SDS011;15053;48.618;10.024;2022-10-31T07:03:32;14.15;;;7.03;;
27642;SDS011;15053;48.618;10.024;2022-10-31T07:05:59;13.75;;;6.68;;
27642;SDS011;15053;48.618;10.024;2022-10-31T07:08:26;13.82;;;7.03;;
27642;SDS011;15053;48.618;10.024;2022-10-31T07:10:54;11.82;;;6.28;;
27642;SDS011;15053;48.618;10.024;2022-10-31T07:13:23;14.65;;;5.05;;
27642;SDS011;15053;48.618;10.024;2022-10-31T07:16:02;12.02;;;6.43;;
27642;SDS011;15053;48.618;10.024;2022-10-31T07:18:32;16.00;;;6.72;;
27642;SDS011;15053;48.618;10.024;2022-10-31T07:20:59;12.27;;;6.88;;
27642;SDS011;15053;48.618;10.024;2022-10-31T07:23:26;13.68;;;6.25;;
27642;SDS011;15053;48.618;10.024;2022-10-31T07:26:22;9.50;;;6.47;;
27642;SDS011;15053;48.618;10.024;2022-10-31T07:28:48;8.68;;;6.07;;
27642;SDS011;15053;48.618;10.024;2022-10-31T07:31:18;12.93;;;6.30;;
27642;SDS011;15053;48.618;10.024;2022-10-31T07:33:45;19.45;;;7.20;;
27642;SDS011;15053;48.618;10.024;2022-10-31T07:36:40;14.13;;;8.30;;
27642;SDS011;15053;48.618;10.024;2022-10-31T07:39:07;15.05;;;8.70;;
27642;SDS011;15053;48.618;10.024;2022-10-31T07:41:34;19.17;;;9.52;;
27642;SDS011;15053;48.618;10.024;2022-10-31T07:44:01;17.65;;;8.82;;
27642;SDS011;15053;48.618;10.024;2022-10-31T07:46:46;24.67;;;11.27;;
27642;SDS011;15053;48.618;10.024;2022-10-31T07:49:18;19.70;;;9.75;;
27642;SDS011;15053;48.618;10.024;2022-10-31T07:52:03;21.00;;;9.88;;
27642;SDS011;15053;48.618;10.024;2022-10-31T07:54:48;26.08;;;9.70;;
27642;SDS011;15053;48.618;10.024;2022-10-31T07:57:21;20.80;;;10.30;;
27642;SDS011;15053;48.618;10.024;2022-10-31T07:59:50;22.20;;;12.05;;
27642;SDS011;15053;48.618;10.024;2022-10-31T08:02:17;19.10;;;11.05;;
27642;SDS011;15053;48.618;10.024;2022-10-31T08:05:04;23.27;;;12.57;;
27642;SDS011;15053;48.618;10.024;2022-10-31T08:07:35;22.65;;;11.40;;
27642;SDS011;15053;48.618;10.024;2022-10-31T08:10:15;24.30;;;12.27;;
27642;SDS011;15053;48.618;10.024;2022-10-31T08:12:42;23.88;;;14.02;;
27642;SDS011;15053;48.618;10.024;2022-10-31T08:15:10;27.15;;;13.75;;
27642;SDS011;15053;48.618;10.024;2022-10-31T08:17:37;28.05;;;14.55;;
27642;SDS011;15053;48.618;10.024;2022-10-31T08:20:04;32.00;;;15.25;;
27642;SDS011;15053;48.618;10.024;2022-10-31T08:22:35;29.42;;;16.02;;
27642;SDS011;15053;48.618;10.024;2022-10-31T08:25:08;30.98;;;15.77;;
27642;SDS011;15053;48.618;10.024;2022-10-31T08:27:36;31.23;;;17.73;;
27642;SDS011;15053;48.618;10.024;2022-10-31T08:30:02;33.97;;;17.90;;
27642;SDS011;15053;48.618;10.024;2022-10-31T08:32:31;31.80;;;18.52;;
27642;SDS011;15053;48.618;10.024;2022-10-31T08:35:35;33.47;;;17.95;;
27642;SDS011;15053;48.618;10.024;2022-10-31T08:38:22;32.90;;;16.80;;
27642;SDS011;15053;48.618;10.024;2022-10-31T08:40:49;28.95;;;16.05;;
27642;SDS011;15053;48.618;10.024;2022-10-31T08:43:16;35.30;;;17.77;;
27642;SDS011;15053;48.618;10.024;2022-10-31T08:45:44;30.17;;;18.45;;
27642;SDS011;15053;48.618;10.024;2022-10-31T08:48:19;44.13;;;19.27;;
27642;SDS011;15053;48.618;10.024;2022-10-31T08:50:46;38.78;;;20.30;;
27642;SDS011;15053;48.618;10.024;2022-10-31T08:53:14;36.33;;;20.67;;
27642;SDS011;15053;48.618;10.024;2022-10-31T08:55:50;39.85;;;20.55;;
27642;SDS011;15053;48.618;10.024;2022-10-31T08:58:24;33.83;;;21.02;;
27642;SDS011;15053;48.618;10.024;2022-10-31T09:00:58;34.50;;;20.33;;
27642;SDS011;15053;48.618;10.024;2022-10-31T09:03:26;38.95;;;20.42;;
27642;SDS011;15053;48.618;10.024;2022-10-31T09:05:55;37.97;;;20.60;;
27642;SDS011;15053;48.618;10.024;2022-10-31T09:08:23;33.08;;;19.38;;
27642;SDS011;15053;48.618;10.024;2022-10-31T09:10:50;34.65;;;19.55;;
27642;SDS011;15053;48.618;10.024;2022-10-31T09:13:28;35.80;;;20.48;;
27642;SDS011;15053;48.618;10.024;2022-10-31T09:16:27;39.95;;;21.30;;
27642;SDS011;15053;48.618;10.024;2022-10-31T09:18:54;33.70;;;21.30;;
27642;SDS011;15053;48.618;10.024;2022-10-31T09:21:20;33.58;;;20.13;;
27642;SDS011;15053;48.618;10.024;2022-10-31T09:23:46;36.42;;;20.02;;
27642;SDS011;15053;48.618;10.024;2022-10-31T09:26:14;34.78;;;20.55;;
27642;SDS011;15053;48.618;10.024;2022-10-31T09:28:45;32.70;;;20.08;;
27642;SDS011;15053;48.618;10.024;2022-10-31T09:31:14;38.45;;;20.92;;
27642;SDS011;15053;48.618;10.024;2022-10-31T09:34:14;33.20;;;19.30;;
27642;SDS011;15053;48.618;10.024;2022-10-31T09:37:00;34.97;;;21.33;;
27642;SDS011;15053;48.618;10.024;2022-10-31T09:39:27;36.90;;;21.85;;
27642;SDS011;15053;48.618;10.024;2022-10-31T09:44:46;45.33;;;20.38;;
27642;SDS011;15053;48.618;10.024;2022-10-31T09:50:26;47.17;;;22.00;;
27642;SDS011;15053;48.618;10.024;2022-10-31T09:55:48;34.33;;;18.63;;
27642;SDS011;15053;48.618;10.024;2022-10-31T09:58:20;33.90;;;20.00;;
27642;SDS011;15053;48.618;10.024;2022-10-31T10:00:51;34.45;;;20.20;;
27642;SDS011;15053;48.618;10.024;2022-10-31T10:06:29;37.97;;;20.15;;
27642;SDS011;15053;48.618;10.024;2022-10-31T10:09:35;29.73;;;19.75;;
27642;SDS011;15053;48.618;10.024;2022-10-31T10:12:31;36.22;;;20.33;;
27642;SDS011;15053;48.618;10.024;2022-10-31T10:18:00;34.22;;;19.92;;
27642;SDS011;15053;48.618;10.024;2022-10-31T10:26:43;33.45;;;20.38;;
27642;SDS011;15053;48.618;10.024;2022-10-31T10:32:01;30.65;;;19.75;;
27642;SDS011;15053;48.618;10.024;2022-10-31T10:34:36;43.50;;;22.30;;
27642;SDS011;15053;48.618;10.024;2022-10-31T10:37:18;39.35;;;21.02;;
27642;SDS011;15053;48.618;10.024;2022-10-31T10:39:52;38.92;;;21.27;;
27642;SDS011;15053;48.618;10.024;2022-10-31T10:42:23;35.72;;;20.88;;
27642;SDS011;15053;48.618;10.024;2022-10-31T10:45:15;33.30;;;20.17;;
27642;SDS011;15053;48.618;10.024;2022-10-31T10:48:05;32.83;;;19.42;;
27642;SDS011;15053;48.618;10.024;2022-10-31T10:50:46;36.72;;;20.15;;
27642;SDS011;15053;48.618;10.024;2022-10-31T10:58:38;30.77;;;19.08;;
27642;SDS011;15053;48.618;10.024;2022-10-31T11:01:09;31.40;;;17.33;;
27642;SDS011;15053;48.618;10.024;2022-10-31T11:03:41;32.67;;;16.83;;
27642;SDS011;15053;48.618;10.024;2022-10-31T11:06:21;28.77;;;16.13;;
27642;SDS011;15053;48.618;10.024;2022-10-31T11:08:52;35.60;;;17.13;;
27642;SDS011;15053;48.618;10.024;2022-10-31T11:11:26;30.88;;;14.98;;
27642;SDS011;15053;48.618;10.024;2022-10-31T11:14:00;35.22;;;16.15;;
27642;SDS011;15053;48.618;10.024;2022-10-31T11:16:35;30.52;;;15.70;;
27642;SDS011;15053;48.618;10.024;2022-10-31T11:19:13;31.58;;;15.68;;
27642;SDS011;15053;48.618;10.024;2022-10-31T11:21:44;31.73;;;16.33;;
27642;SDS011;15053;48.618;10.024;2022-10-31T11:24:23;24.02;;;15.07;;
27642;SDS011;15053;48.618;10.024;2022-10-31T11:27:02;25.25;;;13.95;;
27642;SDS011;15053;48.618;10.024;2022-10-31T11:29:50;23.67;;;14.35;;
27642;SDS011;15053;48.618;10.024;2022-10-31T11:32:22;29.50;;;14.05;;
27642;SDS011;15053;48.618;10.024;2022-10-31T11:34:51;21.80;;;12.82;;
27642;SDS011;15053;48.618;10.024;2022-10-31T11:37:25;25.05;;;14.60;;
27642;SDS011;15053;48.618;10.024;2022-10-31T11:39:55;22.80;;;13.48;;
27642;SDS011;15053;48.618;10.024;2022-10-31T11:42:26;25.58;;;12.82;;
27642;SDS011;15053;48.618;10.024;2022-10-31T11:44:55;25.70;;;14.18;;
27642;SDS011;15053;48.618;10.024;2022-10-31T11:47:31;27.02;;;12.93;;
27642;SDS011;15053;48.618;10.024;2022-10-31T11:50:08;25.85;;;14.40;;
27642;SDS011;15053;48.618;10.024;2022-10-31T11:52:37;22.63;;;12.30;;
27642;SDS011;15053;48.618;10.024;2022-10-31T11:57:45;22.23;;;13.50;;
27642;SDS011;15053;48.618;10.024;2022-10-31T12:00:24;27.20;;;13.77;;
27642;SDS011;15053;48.618;10.024;2022-10-31T12:06:38;28.00;;;14.25;;
27642;SDS011;15053;48.618;10.024;2022-10-31T12:09:21;26.95;;;15.30;;
27642;SDS011;15053;48.618;10.024;2022-10-31T12:17:47;28.15;;;13.23;;
27642;SDS011;15053;48.618;10.024;2022-10-31T12:20:44;26.25;;;13.35;;
27642;SDS011;15053;48.618;10.024;2022-10-31T12:31:33;29.70;;;14.48;;
27642;SDS011;15053;48.618;10.024;2022-10-31T12:36:59;28.70;;;15.40;;
27642;SDS011;15053;48.618;10.024;2022-10-31T12:45:17;25.30;;;14.60;;
27642;SDS011;15053;48.618;10.024;2022-10-31T12:50:49;24.80;;;14.30;;
27642;SDS011;15053;48.618;10.024;2022-10-31T12:58:49;37.50;;;16.63;;
27642;SDS011;15053;48.618;10.024;2022-10-31T13:04:50;27.85;;;16.13;;
27642;SDS011;15053;48.618;10.024;2022-10-31T13:07:23;32.53;;;17.13;;
27642;SDS011;15053;48.618;10.024;2022-10-31T13:10:07;29.55;;;16.20;;
27642;SDS011;15053;48.618;10.024;2022-10-31T13:12:43;29.63;;;16.95;;
27642;SDS011;15053;48.618;10.024;2022-10-31T13:15:17;56.70;;;32.47;;
27642;SDS011;15053;48.618;10.024;2022-10-31T13:17:48;32.90;;;15.95;;
27642;SDS011;15053;48.618;10.024;2022-10-31T13:20:23;30.92;;;15.10;;
27642;SDS011;15053;48.618;10.024;2022-10-31T13:22:54;41.42;;;21.90;;
27642;SDS011;15053;48.618;10.024;2022-10-31T13:25:32;27.88;;;16.67;;
27642;SDS011;15053;48.618;10.024;2022-10-31T13:31:08;57.72;;;26.90;;
27642;SDS011;15053;48.618;10.024;2022-10-31T13:33:39;46.33;;;26.02;;
27642;SDS011;15053;48.618;10.024;2022-10-31T13:36:24;55.33;;;31.52;;
27642;SDS011;15053;48.618;10.024;2022-10-31T13:41:48;31.27;;;19.23;;
27642;SDS011;15053;48.618;10.024;2022-10-31T13:44:16;67.05;;;38.13;;
27642;SDS011;15053;48.618;10.024;2022-10-31T13:46:46;60.45;;;32.78;;
27642;SDS011;15053;48.618;10.024;2022-10-31T13:52:11;28.42;;;16.95;;
27642;SDS011;15053;48.618;10.024;2022-10-31T13:54:40;43.58;;;24.27;;
27642;SDS011;15053;48.618;10.024;2022-10-31T14:00:45;44.85;;;26.30;;
27642;SDS011;15053;48.618;10.024;2022-10-31T14:02:48;32.30;;;16.60;;
27642;SDS011;15053;48.618;10.024;2022-10-31T14:05:25;31.83;;;17.35;;
27642;SDS011;15053;48.618;10.024;2022-10-31T14:08:03;24.20;;;14.60;;
27642;SDS011;15053;48.618;10.024;2022-10-31T14:10:35;32.08;;;15.65;;
27642;SDS011;15053;48.618;10.024;2022-10-31T14:13:05;25.73;;;16.60;;
27642;SDS011;15053;48.618;10.024;2022-10-31T14:15:36;29.85;;;16.55;;
27642;SDS011;15053;48.618;10.024;2022-10-31T14:18:05;33.22;;;16.48;;
27642;SDS011;15053;48.618;10.024;2022-10-31T14:20:43;27.77;;;15.50;;
27642;SDS011;15053;48.618;10.024;2022-10-31T14:23:11;31.42;;;17.80;;
27642;SDS011;15053;48.618;10.024;2022-10-31T14:25:37;23.90;;;16.50;;
27642;SDS011;15053;48.618;10.024;2022-10-31T14:28:21;29.45;;;16.88;;
27642;SDS011;15053;48.618;10.024;2022-10-31T14:30:57;28.52;;;16.67;;
27642;SDS011;15053;48.618;10.024;2022-10-31T14:33:26;37.35;;;16.42;;
27642;SDS011;15053;48.618;10.024;2022-10-31T14:35:56;25.08;;;15.63;;
27642;SDS011;15053;48.618;10.024;2022-10-31T14:44:12;27.27;;;15.75;;
27642;SDS011;15053;48.618;10.024;2022-10-31T14:52:56;24.88;;;15.50;;
27642;SDS011;15053;48.618;10.024;2022-10-31T14:55:26;23.48;;;15.80;;
27642;SDS011;15053;48.618;10.024;2022-10-31T14:58:13;25.92;;;14.77;;
27642;SDS011;15053;48.618;10.024;2022-10-31T15:00:45;29.17;;;14.85;;
27642;SDS011;15053;48.618;10.024;2022-10-31T15:03:14;23.20;;;14.77;;
27642;SDS011;15053;48.618;10.024;2022-10-31T15:05:55;29.88;;;16.48;;
27642;SDS011;15053;48.618;10.024;2022-10-31T15:11:14;24.90;;;15.23;;
27642;SDS011;15053;48.618;10.024;2022-10-31T15:13:43;20.85;;;14.10;;
27642;SDS011;15053;48.618;10.024;2022-10-31T15:16:11;25.30;;;14.38;;
27642;SDS011;15053;48.618;10.024;2022-10-31T15:18:46;28.70;;;14.65;;
27642;SDS011;15053;48.618;10.024;2022-10-31T15:21:15;25.17;;;14.45;;
27642;SDS011;15053;48.618;10.024;2022-10-31T15:23:43;25.30;;;15.25;;
27642;SDS011;15053;48.618;10.024;2022-10-31T15:26:11;19.48;;;14.68;;
27642;SDS011;15053;48.618;10.024;2022-10-31T15:28:42;29.50;;;15.95;;
27642;SDS011;15053;48.618;10.024;2022-10-31T15:31:15;22.17;;;15.45;;
27642;SDS011;15053;48.618;10.024;2022-10-31T15:33:45;30.13;;;16.55;;
27642;SDS011;15053;48.618;10.024;2022-10-31T15:36:22;26.05;;;16.92;;
27642;SDS011;15053;48.618;10.024;2022-10-31T15:38:56;33.30;;;16.75;;
27642;SDS011;15053;48.618;10.024;2022-10-31T15:41:36;26.08;;;17.27;;
27642;SDS011;15053;48.618;10.024;2022-10-31T15:44:33;35.53;;;18.42;;
27642;SDS011;15053;48.618;10.024;2022-10-31T15:47:03;28.38;;;19.48;;
27642;SDS011;15053;48.618;10.024;2022-10-31T15:49:38;31.27;;;19.20;;
27642;SDS011;15053;48.618;10.024;2022-10-31T15:52:11;31.80;;;20.15;;
27642;SDS011;15053;48.618;10.024;2022-10-31T15:54:50;32.55;;;20.85;;
27642;SDS011;15053;48.618;10.024;2022-10-31T15:57:19;36.60;;;19.63;;
27642;SDS011;15053;48.618;10.024;2022-10-31T15:59:46;33.83;;;21.40;;
27642;SDS011;15053;48.618;10.024;2022-10-31T16:02:17;31.33;;;21.42;;
27642;SDS011;15053;48.618;10.024;2022-10-31T16:04:49;31.70;;;20.90;;
27642;SDS011;15053;48.618;10.024;2022-10-31T16:07:23;32.25;;;21.05;;
27642;SDS011;15053;48.618;10.024;2022-10-31T16:12:20;39.75;;;21.40;;
27642;SDS011;15053;48.618;10.024;2022-10-31T16:14:49;31.42;;;21.15;;
27642;SDS011;15053;48.618;10.024;2022-10-31T16:17:18;34.25;;;21.50;;
27642;SDS011;15053;48.618;10.024;2022-10-31T16:19:48;32.70;;;21.77;;
27642;SDS011;15053;48.618;10.024;2022-10-31T16:22:28;40.33;;;23.63;;
27642;SDS011;15053;48.618;10.024;2022-10-31T16:27:35;37.92;;;22.85;;
27642;SDS011;15053;48.618;10.024;2022-10-31T16:30:24;41.47;;;24.92;;
27642;SDS011;15053;48.618;10.024;2022-10-31T16:33:47;41.17;;;23.42;;
27642;SDS011;15053;48.618;10.024;2022-10-31T16:39:01;62.45;;;35.10;;
27642;SDS011;15053;48.618;10.024;2022-10-31T16:41:27;51.92;;;34.53;;
27642;SDS011;15053;48.618;10.024;2022-10-31T16:43:54;40.92;;;27.48;;
27642;SDS011;15053;48.618;10.024;2022-10-31T16:46:24;46.95;;;27.35;;
27642;SDS011;15053;48.618;10.024;2022-10-31T16:48:53;38.85;;;23.58;;
27642;SDS011;15053;48.618;10.024;2022-10-31T16:51:20;40.72;;;23.88;;
27642;SDS011;15053;48.618;10.024;2022-10-31T16:53:46;37.28;;;23.88;;
27642;SDS011;15053;48.618;10.024;2022-10-31T16:56:17;41.45;;;23.55;;
27642;SDS011;15053;48.618;10.024;2022-10-31T16:58:46;52.78;;;23.98;;
27642;SDS011;15053;48.618;10.024;2022-10-31T17:01:13;36.85;;;22.17;;
27642;SDS011;15053;48.618;10.024;2022-10-31T17:03:39;37.05;;;22.00;;
27642;SDS011;15053;48.618;10.024;2022-10-31T17:06:08;42.47;;;24.00;;